sensor_id;sensor_type;location;lat;lon;timestamp;P1;durP1;ratioP1;P2;durP2;ratioP2
24751;SDS011;27246;52.376;4.628;2023-05-10T00:03:37;14.15;;;12.65;;
24751;SDS011;27246;52.376;4.628;2023-05-10T00:08:39;14.30;;;12.88;;
24751;SDS011;27246;52.376;4.628;2023-05-10T00:13:40;15.00;;;13.48;;
24751;SDS011;27246;52.376;4.628;2023-05-10T00:18:42;15.30;;;13.15;;
24751;SDS011;27246;52.376;4.628;2023-05-10T00:23:44;15.95;;;13.60;;
24751;SDS011;27246;52.376;4.628;2023-05-10T00:28:45;15.50;;;13.02;;
24751;SDS011;27246;52.376;4.628;2023-05-10T00:33:47;15.75;;;14.13;;
24751;SDS011;27246;52.376;4.628;2023-05-10T00:38:49;16.55;;;14.48;;
24751;SDS011;27246;52.376;4.628;2023-05-10T00:43:51;16.48;;;14.77;;
24751;SDS011;27246;52.376;4.628;2023-05-10T00:48:53;16.23;;;14.55;;
24751;SDS011;27246;52.376;4.628;2023-05-10T00:53:55;17.17;;;13.13;;
24751;SDS011;27246;52.376;4.628;2023-05-10T00:58:57;18.63;;;14.93;;
24751;SDS011;27246;52.376;4.628;2023-05-10T01:03:59;17.58;;;12.77;;
24751;SDS011;27246;52.376;4.628;2023-05-10T01:09:01;16.08;;;13.60;;
24751;SDS011;27246;52.376;4.628;2023-05-10T01:14:05;15.55;;;13.15;;
24751;SDS011;27246;52.376;4.628;2023-05-10T01:19:11;16.35;;;13.93;;
24751;SDS011;27246;52.376;4.628;2023-05-10T01:35:26;20.02;;;14.77;;
24751;SDS011;27246;52.376;4.628;2023-05-10T01:46:10;13.55;;;11.57;;
24751;SDS011;27246;52.376;4.628;2023-05-10T01:51:23;17.80;;;12.48;;
24751;SDS011;27246;52.376;4.628;2023-05-10T01:56:28;17.95;;;13.68;;
24751;SDS011;27246;52.376;4.628;2023-05-10T02:01:33;16.98;;;13.52;;
24751;SDS011;27246;52.376;4.628;2023-05-10T02:06:38;17.13;;;14.23;;
24751;SDS011;27246;52.376;4.628;2023-05-10T02:11:41;17.38;;;13.93;;
24751;SDS011;27246;52.376;4.628;2023-05-10T02:16:45;12.90;;;9.57;;
24751;SDS011;27246;52.376;4.628;2023-05-10T02:21:50;16.27;;;11.57;;
24751;SDS011;27246;52.376;4.628;2023-05-10T02:26:53;16.65;;;11.25;;
24751;SDS011;27246;52.376;4.628;2023-05-10T02:31:57;16.92;;;9.60;;
24751;SDS011;27246;52.376;4.628;2023-05-10T02:36:59;16.00;;;9.48;;
24751;SDS011;27246;52.376;4.628;2023-05-10T02:42:03;13.93;;;8.23;;
24751;SDS011;27246;52.376;4.628;2023-05-10T02:47:06;9.77;;;7.32;;
24751;SDS011;27246;52.376;4.628;2023-05-10T02:52:08;10.23;;;6.93;;
24751;SDS011;27246;52.376;4.628;2023-05-10T02:57:14;9.68;;;7.30;;
24751;SDS011;27246;52.376;4.628;2023-05-10T03:02:22;8.65;;;7.20;;
24751;SDS011;27246;52.376;4.628;2023-05-10T03:07:24;11.77;;;8.50;;
24751;SDS011;27246;52.376;4.628;2023-05-10T03:18:06;10.05;;;7.60;;
24751;SDS011;27246;52.376;4.628;2023-05-10T03:28:25;13.98;;;9.18;;
24751;SDS011;27246;52.376;4.628;2023-05-10T03:33:28;14.55;;;9.95;;
24751;SDS011;27246;52.376;4.628;2023-05-10T03:38:30;12.95;;;9.57;;
24751;SDS011;27246;52.376;4.628;2023-05-10T03:43:33;12.80;;;9.43;;
24751;SDS011;27246;52.376;4.628;2023-05-10T03:48:35;13.13;;;9.48;;
24751;SDS011;27246;52.376;4.628;2023-05-10T03:53:37;13.20;;;9.18;;
24751;SDS011;27246;52.376;4.628;2023-05-10T03:58:39;14.20;;;9.73;;
24751;SDS011;27246;52.376;4.628;2023-05-10T04:03:40;11.85;;;9.02;;
24751;SDS011;27246;52.376;4.628;2023-05-10T04:08:42;14.88;;;9.60;;
24751;SDS011;27246;52.376;4.628;2023-05-10T04:13:44;14.05;;;9.80;;
24751;SDS011;27246;52.376;4.628;2023-05-10T04:18:46;11.25;;;8.52;;
24751;SDS011;27246;52.376;4.628;2023-05-10T04:23:48;13.05;;;9.68;;
24751;SDS011;27246;52.376;4.628;2023-05-10T04:28:49;12.68;;;9.63;;
24751;SDS011;27246;52.376;4.628;2023-05-10T04:33:53;13.02;;;9.80;;
24751;SDS011;27246;52.376;4.628;2023-05-10T04:38:54;12.90;;;9.45;;
24751;SDS011;27246;52.376;4.628;2023-05-10T04:43:57;13.00;;;10.77;;
24751;SDS011;27246;52.376;4.628;2023-05-10T04:48:58;12.27;;;9.95;;
24751;SDS011;27246;52.376;4.628;2023-05-10T04:54:00;12.15;;;9.18;;
24751;SDS011;27246;52.376;4.628;2023-05-10T04:59:06;12.52;;;9.13;;
24751;SDS011;27246;52.376;4.628;2023-05-10T05:04:08;12.23;;;9.10;;
24751;SDS011;27246;52.376;4.628;2023-05-10T05:09:10;12.68;;;10.10;;
24751;SDS011;27246;52.376;4.628;2023-05-10T05:14:14;12.23;;;9.50;;
24751;SDS011;27246;52.376;4.628;2023-05-10T05:19:16;13.43;;;10.20;;
24751;SDS011;27246;52.376;4.628;2023-05-10T05:24:17;11.85;;;10.00;;
24751;SDS011;27246;52.376;4.628;2023-05-10T05:29:19;14.45;;;9.23;;
24751;SDS011;27246;52.376;4.628;2023-05-10T05:34:21;10.98;;;9.30;;
24751;SDS011;27246;52.376;4.628;2023-05-10T05:39:25;12.32;;;8.73;;
24751;SDS011;27246;52.376;4.628;2023-05-10T05:44:27;12.18;;;9.82;;
24751;SDS011;27246;52.376;4.628;2023-05-10T05:49:30;14.25;;;10.07;;
24751;SDS011;27246;52.376;4.628;2023-05-10T05:54:32;15.52;;;11.00;;
24751;SDS011;27246;52.376;4.628;2023-05-10T05:59:34;11.27;;;9.23;;
24751;SDS011;27246;52.376;4.628;2023-05-10T06:04:35;11.05;;;8.32;;
24751;SDS011;27246;52.376;4.628;2023-05-10T06:09:37;12.80;;;10.25;;
24751;SDS011;27246;52.376;4.628;2023-05-10T06:14:39;11.10;;;8.55;;
24751;SDS011;27246;52.376;4.628;2023-05-10T06:19:41;10.48;;;7.90;;
24751;SDS011;27246;52.376;4.628;2023-05-10T06:24:42;10.98;;;8.35;;
24751;SDS011;27246;52.376;4.628;2023-05-10T06:29:44;10.45;;;7.30;;
24751;SDS011;27246;52.376;4.628;2023-05-10T06:34:46;22.60;;;9.27;;
24751;SDS011;27246;52.376;4.628;2023-05-10T06:39:48;8.35;;;5.72;;
24751;SDS011;27246;52.376;4.628;2023-05-10T06:44:50;20.45;;;7.40;;
24751;SDS011;27246;52.376;4.628;2023-05-10T06:49:52;18.90;;;5.60;;
24751;SDS011;27246;52.376;4.628;2023-05-10T06:54:53;5.28;;;4.32;;
24751;SDS011;27246;52.376;4.628;2023-05-10T06:59:55;5.18;;;4.28;;
24751;SDS011;27246;52.376;4.628;2023-05-10T07:04:57;17.45;;;7.25;;
24751;SDS011;27246;52.376;4.628;2023-05-10T07:10:03;13.90;;;6.38;;
24751;SDS011;27246;52.376;4.628;2023-05-10T07:15:05;18.77;;;6.93;;
24751;SDS011;27246;52.376;4.628;2023-05-10T07:20:08;6.30;;;5.13;;
24751;SDS011;27246;52.376;4.628;2023-05-10T07:25:10;7.20;;;4.40;;
24751;SDS011;27246;52.376;4.628;2023-05-10T07:30:12;6.72;;;4.60;;
24751;SDS011;27246;52.376;4.628;2023-05-10T07:35:14;7.55;;;4.82;;
24751;SDS011;27246;52.376;4.628;2023-05-10T07:40:16;6.65;;;4.65;;
24751;SDS011;27246;52.376;4.628;2023-05-10T07:45:18;6.50;;;5.07;;
24751;SDS011;27246;52.376;4.628;2023-05-10T07:50:22;6.07;;;5.47;;
24751;SDS011;27246;52.376;4.628;2023-05-10T07:55:24;6.32;;;5.43;;
24751;SDS011;27246;52.376;4.628;2023-05-10T08:00:26;10.45;;;6.15;;
24751;SDS011;27246;52.376;4.628;2023-05-10T08:05:28;7.22;;;5.60;;
24751;SDS011;27246;52.376;4.628;2023-05-10T08:10:30;7.57;;;5.75;;
24751;SDS011;27246;52.376;4.628;2023-05-10T08:15:31;6.30;;;4.80;;
24751;SDS011;27246;52.376;4.628;2023-05-10T08:20:33;5.50;;;4.90;;
24751;SDS011;27246;52.376;4.628;2023-05-10T08:25:36;7.72;;;5.60;;
24751;SDS011;27246;52.376;4.628;2023-05-10T08:30:37;12.98;;;6.82;;
24751;SDS011;27246;52.376;4.628;2023-05-10T08:35:39;10.30;;;5.28;;
24751;SDS011;27246;52.376;4.628;2023-05-10T08:40:41;7.80;;;5.13;;
24751;SDS011;27246;52.376;4.628;2023-05-10T08:45:45;7.72;;;4.80;;
24751;SDS011;27246;52.376;4.628;2023-05-10T08:50:48;10.68;;;5.25;;
24751;SDS011;27246;52.376;4.628;2023-05-10T08:55:54;9.65;;;5.05;;
24751;SDS011;27246;52.376;4.628;2023-05-10T09:00:57;8.43;;;5.43;;
24751;SDS011;27246;52.376;4.628;2023-05-10T09:05:59;7.43;;;5.47;;
24751;SDS011;27246;52.376;4.628;2023-05-10T09:11:01;10.45;;;5.20;;
24751;SDS011;27246;52.376;4.628;2023-05-10T09:16:03;7.40;;;4.88;;
24751;SDS011;27246;52.376;4.628;2023-05-10T09:21:21;6.43;;;4.93;;
24751;SDS011;27246;52.376;4.628;2023-05-10T09:26:23;8.18;;;6.13;;
24751;SDS011;27246;52.376;4.628;2023-05-10T09:31:25;6.45;;;4.82;;
24751;SDS011;27246;52.376;4.628;2023-05-10T09:36:55;9.52;;;4.80;;
24751;SDS011;27246;52.376;4.628;2023-05-10T09:42:01;5.63;;;3.90;;
24751;SDS011;27246;52.376;4.628;2023-05-10T09:47:06;7.97;;;4.60;;
24751;SDS011;27246;52.376;4.628;2023-05-10T09:52:08;7.55;;;5.57;;
24751;SDS011;27246;52.376;4.628;2023-05-10T09:57:18;9.50;;;5.18;;
24751;SDS011;27246;52.376;4.628;2023-05-10T10:02:28;28.20;;;21.35;;
24751;SDS011;27246;52.376;4.628;2023-05-10T10:07:30;10.10;;;5.47;;
24751;SDS011;27246;52.376;4.628;2023-05-10T10:12:33;7.95;;;5.80;;
24751;SDS011;27246;52.376;4.628;2023-05-10T10:17:35;8.15;;;5.15;;
24751;SDS011;27246;52.376;4.628;2023-05-10T10:22:39;10.75;;;7.07;;
24751;SDS011;27246;52.376;4.628;2023-05-10T10:43:49;20.15;;;11.25;;
24751;SDS011;27246;52.376;4.628;2023-05-10T10:54:10;19.90;;;11.52;;
24751;SDS011;27246;52.376;4.628;2023-05-10T10:59:12;17.15;;;10.93;;
24751;SDS011;27246;52.376;4.628;2023-05-10T11:04:28;16.55;;;10.43;;
24751;SDS011;27246;52.376;4.628;2023-05-10T11:09:30;19.25;;;11.48;;
24751;SDS011;27246;52.376;4.628;2023-05-10T11:14:41;13.07;;;8.73;;
24751;SDS011;27246;52.376;4.628;2023-05-10T11:19:53;22.83;;;9.88;;
24751;SDS011;27246;52.376;4.628;2023-05-10T11:25:28;12.60;;;8.23;;
24751;SDS011;27246;52.376;4.628;2023-05-10T11:30:29;15.20;;;9.35;;
24751;SDS011;27246;52.376;4.628;2023-05-10T11:35:38;16.02;;;9.90;;
24751;SDS011;27246;52.376;4.628;2023-05-10T11:40:43;17.92;;;11.75;;
24751;SDS011;27246;52.376;4.628;2023-05-10T11:45:48;15.52;;;10.95;;
24751;SDS011;27246;52.376;4.628;2023-05-10T11:50:50;23.70;;;11.70;;
24751;SDS011;27246;52.376;4.628;2023-05-10T11:55:52;15.25;;;9.20;;
24751;SDS011;27246;52.376;4.628;2023-05-10T12:00:57;18.77;;;11.88;;
24751;SDS011;27246;52.376;4.628;2023-05-10T12:06:01;16.90;;;11.85;;
24751;SDS011;27246;52.376;4.628;2023-05-10T12:11:07;22.77;;;13.35;;
24751;SDS011;27246;52.376;4.628;2023-05-10T12:16:33;15.60;;;11.18;;
24751;SDS011;27246;52.376;4.628;2023-05-10T12:21:33;13.55;;;10.00;;
24751;SDS011;27246;52.376;4.628;2023-05-10T12:26:35;18.77;;;11.05;;
24751;SDS011;27246;52.376;4.628;2023-05-10T12:31:55;18.42;;;12.38;;
24751;SDS011;27246;52.376;4.628;2023-05-10T12:36:58;16.67;;;10.60;;
24751;SDS011;27246;52.376;4.628;2023-05-10T12:42:01;15.15;;;9.40;;
24751;SDS011;27246;52.376;4.628;2023-05-10T12:47:03;13.93;;;8.88;;
24751;SDS011;27246;52.376;4.628;2023-05-10T12:52:04;14.35;;;9.80;;
24751;SDS011;27246;52.376;4.628;2023-05-10T12:57:06;20.33;;;12.27;;
24751;SDS011;27246;52.376;4.628;2023-05-10T13:02:08;18.95;;;11.27;;
24751;SDS011;27246;52.376;4.628;2023-05-10T13:07:12;21.00;;;12.85;;
24751;SDS011;27246;52.376;4.628;2023-05-10T13:12:14;18.35;;;13.18;;
24751;SDS011;27246;52.376;4.628;2023-05-10T13:17:16;16.15;;;11.50;;
24751;SDS011;27246;52.376;4.628;2023-05-10T13:22:18;24.83;;;16.08;;
24751;SDS011;27246;52.376;4.628;2023-05-10T13:27:37;17.45;;;10.77;;
24751;SDS011;27246;52.376;4.628;2023-05-10T13:32:40;17.42;;;12.05;;
24751;SDS011;27246;52.376;4.628;2023-05-10T13:37:44;14.80;;;9.88;;
24751;SDS011;27246;52.376;4.628;2023-05-10T13:42:45;11.00;;;8.38;;
24751;SDS011;27246;52.376;4.628;2023-05-10T13:47:47;14.13;;;9.20;;
24751;SDS011;27246;52.376;4.628;2023-05-10T13:52:49;14.35;;;9.05;;
24751;SDS011;27246;52.376;4.628;2023-05-10T13:57:51;12.57;;;8.55;;
24751;SDS011;27246;52.376;4.628;2023-05-10T14:02:53;13.18;;;8.90;;
24751;SDS011;27246;52.376;4.628;2023-05-10T14:07:56;11.30;;;8.23;;
24751;SDS011;27246;52.376;4.628;2023-05-10T14:12:58;13.80;;;8.35;;
24751;SDS011;27246;52.376;4.628;2023-05-10T14:18:00;15.18;;;10.07;;
24751;SDS011;27246;52.376;4.628;2023-05-10T14:23:02;10.88;;;7.47;;
24751;SDS011;27246;52.376;4.628;2023-05-10T14:28:04;20.17;;;9.05;;
24751;SDS011;27246;52.376;4.628;2023-05-10T14:33:06;10.20;;;7.45;;
24751;SDS011;27246;52.376;4.628;2023-05-10T14:38:09;11.25;;;7.47;;
24751;SDS011;27246;52.376;4.628;2023-05-10T14:43:12;12.48;;;7.68;;
24751;SDS011;27246;52.376;4.628;2023-05-10T14:48:13;12.18;;;7.70;;
24751;SDS011;27246;52.376;4.628;2023-05-10T14:53:19;11.60;;;8.02;;
24751;SDS011;27246;52.376;4.628;2023-05-10T14:58:21;9.90;;;7.68;;
24751;SDS011;27246;52.376;4.628;2023-05-10T15:03:23;6.85;;;5.50;;
24751;SDS011;27246;52.376;4.628;2023-05-10T15:08:25;7.43;;;5.88;;
24751;SDS011;27246;52.376;4.628;2023-05-10T15:13:27;8.32;;;5.70;;
24751;SDS011;27246;52.376;4.628;2023-05-10T15:18:28;6.82;;;4.97;;
24751;SDS011;27246;52.376;4.628;2023-05-10T15:23:30;6.50;;;5.65;;
24751;SDS011;27246;52.376;4.628;2023-05-10T15:28:32;13.93;;;6.07;;
24751;SDS011;27246;52.376;4.628;2023-05-10T15:33:36;7.07;;;5.80;;
24751;SDS011;27246;52.376;4.628;2023-05-10T15:38:53;7.15;;;6.03;;
24751;SDS011;27246;52.376;4.628;2023-05-10T15:43:57;9.13;;;5.88;;
24751;SDS011;27246;52.376;4.628;2023-05-10T15:54:07;7.38;;;6.07;;
24751;SDS011;27246;52.376;4.628;2023-05-10T15:59:14;7.47;;;6.55;;
24751;SDS011;27246;52.376;4.628;2023-05-10T16:04:16;11.77;;;7.53;;
24751;SDS011;27246;52.376;4.628;2023-05-10T16:09:28;8.68;;;5.82;;
24751;SDS011;27246;52.376;4.628;2023-05-10T16:14:30;10.85;;;7.13;;
24751;SDS011;27246;52.376;4.628;2023-05-10T16:19:32;9.88;;;7.20;;
24751;SDS011;27246;52.376;4.628;2023-05-10T16:24:34;9.57;;;6.88;;
24751;SDS011;27246;52.376;4.628;2023-05-10T16:29:36;8.40;;;5.72;;
24751;SDS011;27246;52.376;4.628;2023-05-10T16:34:38;7.53;;;6.18;;
24751;SDS011;27246;52.376;4.628;2023-05-10T16:39:39;6.60;;;5.10;;
24751;SDS011;27246;52.376;4.628;2023-05-10T16:44:41;7.13;;;5.80;;
24751;SDS011;27246;52.376;4.628;2023-05-10T16:49:43;8.00;;;5.93;;
24751;SDS011;27246;52.376;4.628;2023-05-10T16:54:45;7.65;;;6.28;;
24751;SDS011;27246;52.376;4.628;2023-05-10T16:59:46;11.60;;;7.60;;
24751;SDS011;27246;52.376;4.628;2023-05-10T17:04:48;11.18;;;8.07;;
24751;SDS011;27246;52.376;4.628;2023-05-10T17:09:50;12.15;;;7.00;;
24751;SDS011;27246;52.376;4.628;2023-05-10T17:14:52;11.02;;;8.27;;
24751;SDS011;27246;52.376;4.628;2023-05-10T17:19:54;9.00;;;7.85;;
24751;SDS011;27246;52.376;4.628;2023-05-10T17:24:56;12.88;;;9.05;;
24751;SDS011;27246;52.376;4.628;2023-05-10T17:29:59;13.07;;;9.20;;
24751;SDS011;27246;52.376;4.628;2023-05-10T17:35:02;10.73;;;8.27;;
24751;SDS011;27246;52.376;4.628;2023-05-10T17:40:05;10.32;;;8.25;;
24751;SDS011;27246;52.376;4.628;2023-05-10T17:45:08;8.77;;;7.43;;
24751;SDS011;27246;52.376;4.628;2023-05-10T17:50:10;8.35;;;7.13;;
24751;SDS011;27246;52.376;4.628;2023-05-10T17:55:12;8.13;;;6.53;;
24751;SDS011;27246;52.376;4.628;2023-05-10T18:00:14;8.57;;;7.00;;
24751;SDS011;27246;52.376;4.628;2023-05-10T18:05:16;8.00;;;6.95;;
24751;SDS011;27246;52.376;4.628;2023-05-10T18:10:19;9.77;;;6.68;;
24751;SDS011;27246;52.376;4.628;2023-05-10T18:15:21;7.63;;;5.88;;
24751;SDS011;27246;52.376;4.628;2023-05-10T18:20:23;9.13;;;6.35;;
24751;SDS011;27246;52.376;4.628;2023-05-10T18:25:25;8.40;;;6.80;;
24751;SDS011;27246;52.376;4.628;2023-05-10T18:30:27;7.35;;;6.43;;
24751;SDS011;27246;52.376;4.628;2023-05-10T18:35:30;7.13;;;6.40;;
24751;SDS011;27246;52.376;4.628;2023-05-10T18:40:32;8.95;;;7.30;;
24751;SDS011;27246;52.376;4.628;2023-05-10T18:45:34;7.93;;;6.78;;
24751;SDS011;27246;52.376;4.628;2023-05-10T18:50:55;8.20;;;5.75;;
24751;SDS011;27246;52.376;4.628;2023-05-10T18:55:59;8.43;;;7.13;;
24751;SDS011;27246;52.376;4.628;2023-05-10T19:01:01;9.23;;;7.55;;
24751;SDS011;27246;52.376;4.628;2023-05-10T19:06:03;14.63;;;8.95;;
24751;SDS011;27246;52.376;4.628;2023-05-10T19:11:04;9.25;;;6.22;;
24751;SDS011;27246;52.376;4.628;2023-05-10T19:16:10;10.80;;;8.05;;
24751;SDS011;27246;52.376;4.628;2023-05-10T19:21:14;11.10;;;7.82;;
24751;SDS011;27246;52.376;4.628;2023-05-10T19:26:17;13.68;;;8.55;;
24751;SDS011;27246;52.376;4.628;2023-05-10T19:31:19;10.95;;;7.85;;
24751;SDS011;27246;52.376;4.628;2023-05-10T19:36:22;9.13;;;6.53;;
24751;SDS011;27246;52.376;4.628;2023-05-10T19:41:23;10.52;;;6.68;;
24751;SDS011;27246;52.376;4.628;2023-05-10T19:46:26;7.72;;;5.57;;
24751;SDS011;27246;52.376;4.628;2023-05-10T19:51:28;8.52;;;6.47;;
24751;SDS011;27246;52.376;4.628;2023-05-10T19:56:30;10.50;;;6.80;;
24751;SDS011;27246;52.376;4.628;2023-05-10T20:01:31;10.00;;;7.20;;
24751;SDS011;27246;52.376;4.628;2023-05-10T20:06:34;13.57;;;7.85;;
24751;SDS011;27246;52.376;4.628;2023-05-10T20:11:36;11.48;;;7.07;;
24751;SDS011;27246;52.376;4.628;2023-05-10T20:16:37;11.00;;;6.80;;
24751;SDS011;27246;52.376;4.628;2023-05-10T20:21:39;9.98;;;6.72;;
24751;SDS011;27246;52.376;4.628;2023-05-10T20:26:41;10.57;;;6.63;;
24751;SDS011;27246;52.376;4.628;2023-05-10T20:31:42;12.23;;;7.45;;
24751;SDS011;27246;52.376;4.628;2023-05-10T20:36:44;9.55;;;7.45;;
24751;SDS011;27246;52.376;4.628;2023-05-10T20:41:46;11.05;;;7.32;;
24751;SDS011;27246;52.376;4.628;2023-05-10T20:46:48;11.38;;;7.07;;
24751;SDS011;27246;52.376;4.628;2023-05-10T20:51:50;14.30;;;8.18;;
24751;SDS011;27246;52.376;4.628;2023-05-10T20:56:51;16.77;;;8.18;;
24751;SDS011;27246;52.376;4.628;2023-05-10T21:01:53;14.15;;;9.13;;
24751;SDS011;27246;52.376;4.628;2023-05-10T21:06:58;14.65;;;8.40;;
24751;SDS011;27246;52.376;4.628;2023-05-10T21:12:00;13.07;;;8.20;;
24751;SDS011;27246;52.376;4.628;2023-05-10T21:17:03;14.68;;;9.15;;
24751;SDS011;27246;52.376;4.628;2023-05-10T21:22:05;14.45;;;8.55;;
24751;SDS011;27246;52.376;4.628;2023-05-10T21:27:06;11.02;;;8.25;;
24751;SDS011;27246;52.376;4.628;2023-05-10T21:32:09;10.75;;;7.05;;
24751;SDS011;27246;52.376;4.628;2023-05-10T21:37:11;11.10;;;7.60;;
24751;SDS011;27246;52.376;4.628;2023-05-10T21:42:13;12.98;;;7.78;;
24751;SDS011;27246;52.376;4.628;2023-05-10T21:47:14;11.77;;;7.68;;
24751;SDS011;27246;52.376;4.628;2023-05-10T21:52:17;8.25;;;6.00;;
24751;SDS011;27246;52.376;4.628;2023-05-10T21:57:18;7.10;;;5.75;;
24751;SDS011;27246;52.376;4.628;2023-05-10T22:02:22;6.82;;;4.32;;
24751;SDS011;27246;52.376;4.628;2023-05-10T22:07:23;4.90;;;4.13;;
24751;SDS011;27246;52.376;4.628;2023-05-10T22:12:25;6.85;;;4.53;;
24751;SDS011;27246;52.376;4.628;2023-05-10T22:17:27;5.15;;;4.18;;
24751;SDS011;27246;52.376;4.628;2023-05-10T22:22:29;7.10;;;4.78;;
24751;SDS011;27246;52.376;4.628;2023-05-10T22:27:30;5.88;;;4.18;;
24751;SDS011;27246;52.376;4.628;2023-05-10T22:32:32;6.80;;;4.78;;
24751;SDS011;27246;52.376;4.628;2023-05-10T22:37:34;4.60;;;3.85;;
24751;SDS011;27246;52.376;4.628;2023-05-10T22:42:36;4.30;;;3.42;;
24751;SDS011;27246;52.376;4.628;2023-05-10T22:47:37;4.85;;;3.90;;
24751;SDS011;27246;52.376;4.628;2023-05-10T22:52:39;5.25;;;4.15;;
24751;SDS011;27246;52.376;4.628;2023-05-10T22:57:41;4.47;;;3.80;;
24751;SDS011;27246;52.376;4.628;2023-05-10T23:02:44;5.28;;;4.32;;
24751;SDS011;27246;52.376;4.628;2023-05-10T23:07:45;5.55;;;4.82;;
24751;SDS011;27246;52.376;4.628;2023-05-10T23:12:53;7.03;;;4.93;;
24751;SDS011;27246;52.376;4.628;2023-05-10T23:17:56;5.75;;;4.70;;
24751;SDS011;27246;52.376;4.628;2023-05-10T23:23:01;6.88;;;4.72;;
24751;SDS011;27246;52.376;4.628;2023-05-10T23:28:03;6.38;;;5.00;;
24751;SDS011;27246;52.376;4.628;2023-05-10T23:33:05;7.55;;;5.72;;
24751;SDS011;27246;52.376;4.628;2023-05-10T23:38:08;5.85;;;4.45;;
24751;SDS011;27246;52.376;4.628;2023-05-10T23:43:10;5.32;;;4.30;;
24751;SDS011;27246;52.376;4.628;2023-05-10T23:48:12;5.55;;;4.53;;
24751;SDS011;27246;52.376;4.628;2023-05-10T23:53:16;5.20;;;4.65;;
24751;SDS011;27246;52.376;4.628;2023-05-10T23:58:22;5.95;;;4.40;;
